sensor_id;sensor_type;location;lat;lon;timestamp;pressure;altitude;pressure_sealevel;temperature;humidity
6528;BME280;64597;42.664;23.256;2023-09-07T00:01:55;95029.53;;;20.57;56.75
6528;BME280;64597;42.664;23.256;2023-09-07T00:04:20;95025.28;;;20.56;56.88
6528;BME280;64597;42.664;23.256;2023-09-07T00:06:48;95022.88;;;20.54;57.06
6528;BME280;64597;42.664;23.256;2023-09-07T00:09:15;95016.13;;;20.57;57.22
6528;BME280;64597;42.664;23.256;2023-09-07T00:11:41;95002.34;;;20.44;57.47
6528;BME280;64597;42.664;23.256;2023-09-07T00:14:06;95015.09;;;20.52;57.64
6528;BME280;64597;42.664;23.256;2023-09-07T00:16:33;95006.84;;;20.49;57.79
6528;BME280;64597;42.664;23.256;2023-09-07T00:19:03;95022.59;;;20.56;57.79
6528;BME280;64597;42.664;23.256;2023-09-07T00:21:29;95007.66;;;20.49;58.17
6528;BME280;64597;42.664;23.256;2023-09-07T00:23:54;95020.97;;;20.54;58.16
6528;BME280;64597;42.664;23.256;2023-09-07T00:26:20;94999.16;;;20.42;58.30
6528;BME280;64597;42.664;23.256;2023-09-07T00:28:46;95015.63;;;20.54;58.38
6528;BME280;64597;42.664;23.256;2023-09-07T00:31:12;95012.28;;;20.44;58.74
6528;BME280;64597;42.664;23.256;2023-09-07T00:33:37;95012.72;;;20.51;58.57
6528;BME280;64597;42.664;23.256;2023-09-07T00:36:03;95010.63;;;20.48;58.85
6528;BME280;64597;42.664;23.256;2023-09-07T00:38:28;95004.16;;;20.49;59.19
6528;BME280;64597;42.664;23.256;2023-09-07T00:40:54;95009.00;;;20.47;59.25
6528;BME280;64597;42.664;23.256;2023-09-07T00:43:19;95001.31;;;20.40;59.66
6528;BME280;64597;42.664;23.256;2023-09-07T00:45:45;95001.28;;;20.45;59.94
6528;BME280;64597;42.664;23.256;2023-09-07T00:48:12;94996.25;;;20.39;60.31
6528;BME280;64597;42.664;23.256;2023-09-07T00:50:39;94984.56;;;20.30;60.39
6528;BME280;64597;42.664;23.256;2023-09-07T00:53:04;95000.75;;;20.43;60.65
6528;BME280;64597;42.664;23.256;2023-09-07T00:55:32;94999.16;;;20.42;60.52
6528;BME280;64597;42.664;23.256;2023-09-07T00:58:03;94995.94;;;20.40;60.52
6528;BME280;64597;42.664;23.256;2023-09-07T01:00:29;94992.31;;;20.31;60.41
6528;BME280;64597;42.664;23.256;2023-09-07T01:02:54;94993.38;;;20.30;60.40
6528;BME280;64597;42.664;23.256;2023-09-07T01:05:30;94997.19;;;20.24;60.58
6528;BME280;64597;42.664;23.256;2023-09-07T01:08:03;94986.19;;;20.26;60.83
6528;BME280;64597;42.664;23.256;2023-09-07T01:10:33;94987.28;;;20.25;60.60
6528;BME280;64597;42.664;23.256;2023-09-07T01:12:58;94988.34;;;20.24;60.82
6528;BME280;64597;42.664;23.256;2023-09-07T01:15:24;94896.59;;;19.66;60.86
6528;BME280;64597;42.664;23.256;2023-09-07T01:17:50;94994.00;;;20.22;60.38
6528;BME280;64597;42.664;23.256;2023-09-07T01:20:16;94993.72;;;20.24;60.66
6528;BME280;64597;42.664;23.256;2023-09-07T01:22:43;94998.81;;;20.25;60.78
6528;BME280;64597;42.664;23.256;2023-09-07T01:25:09;95002.25;;;20.26;61.11
6528;BME280;64597;42.664;23.256;2023-09-07T01:27:35;94990.78;;;20.25;61.19
6528;BME280;64597;42.664;23.256;2023-09-07T01:30:02;94999.41;;;20.17;61.31
6528;BME280;64597;42.664;23.256;2023-09-07T01:32:28;95001.22;;;20.22;61.23
6528;BME280;64597;42.664;23.256;2023-09-07T01:34:57;94999.38;;;20.22;61.46
6528;BME280;64597;42.664;23.256;2023-09-07T01:37:23;94999.41;;;20.17;61.70
6528;BME280;64597;42.664;23.256;2023-09-07T01:39:49;94989.81;;;20.11;61.71
6528;BME280;64597;42.664;23.256;2023-09-07T01:42:15;95004.75;;;20.17;61.81
6528;BME280;64597;42.664;23.256;2023-09-07T01:44:41;94995.19;;;20.11;61.90
6528;BME280;64597;42.664;23.256;2023-09-07T01:47:06;95003.16;;;20.16;61.41
6528;BME280;64597;42.664;23.256;2023-09-07T01:49:32;94975.41;;;20.07;61.46
6528;BME280;64597;42.664;23.256;2023-09-07T01:51:57;94999.41;;;20.17;61.05
6528;BME280;64597;42.664;23.256;2023-09-07T01:54:23;94995.09;;;20.21;61.14
6528;BME280;64597;42.664;23.256;2023-09-07T01:56:48;95002.03;;;20.22;60.88
6528;BME280;64597;42.664;23.256;2023-09-07T01:59:14;94990.59;;;20.12;61.15
6528;BME280;64597;42.664;23.256;2023-09-07T02:01:39;94995.09;;;20.21;61.20
6528;BME280;64597;42.664;23.256;2023-09-07T02:04:05;94988.13;;;20.20;61.42
6528;BME280;64597;42.664;23.256;2023-09-07T02:06:31;94990.28;;;20.18;61.42
6528;BME280;64597;42.664;23.256;2023-09-07T02:08:56;94993.50;;;20.20;61.34
6528;BME280;64597;42.664;23.256;2023-09-07T02:11:22;94990.81;;;20.20;61.26
6528;BME280;64597;42.664;23.256;2023-09-07T02:13:48;94988.13;;;20.20;61.22
6528;BME280;64597;42.664;23.256;2023-09-07T02:16:13;94994.00;;;20.22;61.18
6528;BME280;64597;42.664;23.256;2023-09-07T02:18:39;94994.53;;;20.24;61.08
6528;BME280;64597;42.664;23.256;2023-09-07T02:21:12;94988.19;;;20.15;61.29
6528;BME280;64597;42.664;23.256;2023-09-07T02:23:38;94991.38;;;20.17;61.25
6528;BME280;64597;42.664;23.256;2023-09-07T02:26:03;94987.38;;;20.15;61.29
6528;BME280;64597;42.664;23.256;2023-09-07T02:28:29;94997.50;;;20.23;61.22
6528;BME280;64597;42.664;23.256;2023-09-07T02:30:58;95001.78;;;20.19;61.43
6528;BME280;64597;42.664;23.256;2023-09-07T02:33:27;95000.47;;;20.16;61.68
6528;BME280;64597;42.664;23.256;2023-09-07T02:35:53;95015.47;;;20.17;61.74
6528;BME280;64597;42.664;23.256;2023-09-07T02:38:18;95005.31;;;20.14;61.79
6528;BME280;64597;42.664;23.256;2023-09-07T02:40:44;94997.88;;;20.06;61.91
6528;BME280;64597;42.664;23.256;2023-09-07T02:43:10;95012.59;;;20.09;62.07
6528;BME280;64597;42.664;23.256;2023-09-07T02:45:36;95001.66;;;20.05;62.44
6528;BME280;64597;42.664;23.256;2023-09-07T02:48:01;95018.97;;;20.13;62.08
6528;BME280;64597;42.664;23.256;2023-09-07T02:50:59;95008.56;;;20.11;62.22
6528;BME280;64597;42.664;23.256;2023-09-07T02:53:25;95006.44;;;20.08;62.44
6528;BME280;64597;42.664;23.256;2023-09-07T02:55:51;95014.19;;;20.10;62.40
6528;BME280;64597;42.664;23.256;2023-09-07T02:58:16;95012.88;;;20.07;62.61
6528;BME280;64597;42.664;23.256;2023-09-07T03:00:45;94999.00;;;20.00;62.81
6528;BME280;64597;42.664;23.256;2023-09-07T03:03:13;95013.94;;;20.06;63.02
6528;BME280;64597;42.664;23.256;2023-09-07T03:05:41;95008.59;;;20.06;62.76
6528;BME280;64597;42.664;23.256;2023-09-07T03:08:07;95005.22;;;19.96;62.87
6528;BME280;64597;42.664;23.256;2023-09-07T03:10:36;95000.16;;;19.94;62.83
6528;BME280;64597;42.664;23.256;2023-09-07T03:13:03;95019.63;;;20.00;62.61
6528;BME280;64597;42.664;23.256;2023-09-07T03:15:29;94962.97;;;19.59;62.91
6528;BME280;64597;42.664;23.256;2023-09-07T03:17:54;95009.75;;;19.95;63.30
6528;BME280;64597;42.664;23.256;2023-09-07T03:20:20;94996.81;;;19.79;63.29
6528;BME280;64597;42.664;23.256;2023-09-07T03:22:46;95019.16;;;19.93;63.32
6528;BME280;64597;42.664;23.256;2023-09-07T03:25:13;95015.72;;;19.87;63.54
6528;BME280;64597;42.664;23.256;2023-09-07T03:27:38;95017.03;;;19.90;63.69
6528;BME280;64597;42.664;23.256;2023-09-07T03:30:04;95010.63;;;19.91;63.87
6528;BME280;64597;42.664;23.256;2023-09-07T03:32:31;95018.41;;;19.87;63.88
6528;BME280;64597;42.664;23.256;2023-09-07T03:35:00;95014.66;;;19.88;63.97
6528;BME280;64597;42.664;23.256;2023-09-07T03:37:29;95017.31;;;19.88;64.04
6528;BME280;64597;42.664;23.256;2023-09-07T03:39:55;95020.00;;;19.88;64.06
6528;BME280;64597;42.664;23.256;2023-09-07T03:42:22;95012.88;;;19.79;64.21
6528;BME280;64597;42.664;23.256;2023-09-07T03:44:47;95017.88;;;19.85;64.29
6528;BME280;64597;42.664;23.256;2023-09-07T03:47:14;95027.00;;;19.84;64.76
6528;BME280;64597;42.664;23.256;2023-09-07T03:49:40;95023.00;;;19.82;65.20
6528;BME280;64597;42.664;23.256;2023-09-07T03:52:06;95026.75;;;19.81;65.59
6528;BME280;64597;42.664;23.256;2023-09-07T03:54:32;95037.22;;;19.77;65.94
6528;BME280;64597;42.664;23.256;2023-09-07T03:56:57;94995.22;;;19.44;66.00
6528;BME280;64597;42.664;23.256;2023-09-07T03:59:23;95046.34;;;19.76;66.65
6528;BME280;64597;42.664;23.256;2023-09-07T04:01:48;95043.13;;;19.74;66.77
6528;BME280;64597;42.664;23.256;2023-09-07T04:04:14;95047.97;;;19.72;66.76
6528;BME280;64597;42.664;23.256;2023-09-07T04:06:40;95045.28;;;19.72;67.04
6528;BME280;64597;42.664;23.256;2023-09-07T04:09:05;95031.19;;;19.61;67.24
6528;BME280;64597;42.664;23.256;2023-09-07T04:11:31;95038.41;;;19.61;67.92
6528;BME280;64597;42.664;23.256;2023-09-07T04:13:57;95037.88;;;19.59;67.82
6528;BME280;64597;42.664;23.256;2023-09-07T04:16:22;95030.38;;;19.61;67.68
6528;BME280;64597;42.664;23.256;2023-09-07T04:18:48;95043.00;;;19.55;67.95
6528;BME280;64597;42.664;23.256;2023-09-07T04:21:13;95039.00;;;19.53;67.77
6528;BME280;64597;42.664;23.256;2023-09-07T04:23:39;95037.88;;;19.59;67.45
6528;BME280;64597;42.664;23.256;2023-09-07T04:26:09;95038.97;;;19.58;67.67
6528;BME280;64597;42.664;23.256;2023-09-07T04:28:35;95039.22;;;19.56;67.71
6528;BME280;64597;42.664;23.256;2023-09-07T04:31:02;95043.81;;;19.51;67.76
6528;BME280;64597;42.664;23.256;2023-09-07T04:33:30;95037.88;;;19.59;68.02
6528;BME280;64597;42.664;23.256;2023-09-07T04:35:56;95030.16;;;19.52;67.82
6528;BME280;64597;42.664;23.256;2023-09-07T04:38:21;95048.06;;;19.57;68.10
6528;BME280;64597;42.664;23.256;2023-09-07T04:40:46;95052.59;;;19.56;68.09
6528;BME280;64597;42.664;23.256;2023-09-07T04:43:12;95030.50;;;19.46;68.71
6528;BME280;64597;42.664;23.256;2023-09-07T04:45:45;95053.97;;;19.54;68.61
6528;BME280;64597;42.664;23.256;2023-09-07T04:48:11;95049.41;;;19.54;69.10
6528;BME280;64597;42.664;23.256;2023-09-07T04:50:37;95051.84;;;19.56;69.13
6528;BME280;64597;42.664;23.256;2023-09-07T04:53:03;95050.25;;;20.22;72.12
6528;BME280;64597;42.664;23.256;2023-09-07T04:55:28;95053.50;;;21.19;68.90
6528;BME280;64597;42.664;23.256;2023-09-07T04:58:01;95050.84;;;21.93;65.10
6528;BME280;64597;42.664;23.256;2023-09-07T05:00:37;95046.84;;;22.37;63.08
6528;BME280;64597;42.664;23.256;2023-09-07T05:03:03;95052.31;;;22.77;60.58
6528;BME280;64597;42.664;23.256;2023-09-07T05:05:28;95052.50;;;23.08;59.32
6528;BME280;64597;42.664;23.256;2023-09-07T05:08:17;95050.31;;;23.37;57.66
6528;BME280;64597;42.664;23.256;2023-09-07T05:10:44;95049.59;;;23.59;56.42
6528;BME280;64597;42.664;23.256;2023-09-07T05:13:09;95054.94;;;23.72;55.01
6528;BME280;64597;42.664;23.256;2023-09-07T05:15:35;95052.38;;;23.90;54.29
6528;BME280;64597;42.664;23.256;2023-09-07T05:18:00;95053.16;;;24.04;53.23
6528;BME280;64597;42.664;23.256;2023-09-07T05:20:30;95051.50;;;24.16;54.31
6528;BME280;64597;42.664;23.256;2023-09-07T05:22:55;95049.53;;;24.30;53.41
6528;BME280;64597;42.664;23.256;2023-09-07T05:25:22;95050.53;;;24.43;52.63
6528;BME280;64597;42.664;23.256;2023-09-07T05:27:59;95058.00;;;24.46;52.46
6528;BME280;64597;42.664;23.256;2023-09-07T05:30:24;95038.97;;;24.42;52.41
6528;BME280;64597;42.664;23.256;2023-09-07T05:32:50;95056.94;;;24.55;53.04
6528;BME280;64597;42.664;23.256;2023-09-07T05:35:15;95032.28;;;24.40;53.17
6528;BME280;64597;42.664;23.256;2023-09-07T05:37:42;95042.06;;;24.58;53.14
6528;BME280;64597;42.664;23.256;2023-09-07T05:40:08;95051.97;;;24.71;53.13
6528;BME280;64597;42.664;23.256;2023-09-07T05:42:34;95060.19;;;24.66;52.40
6528;BME280;64597;42.664;23.256;2023-09-07T05:45:00;95057.88;;;24.73;52.36
6528;BME280;64597;42.664;23.256;2023-09-07T05:47:25;95061.53;;;24.77;52.90
6528;BME280;64597;42.664;23.256;2023-09-07T05:49:52;95062.63;;;24.76;52.39
6528;BME280;64597;42.664;23.256;2023-09-07T05:52:17;95055.19;;;24.73;52.49
6528;BME280;64597;42.664;23.256;2023-09-07T05:54:43;95055.19;;;24.73;51.67
6528;BME280;64597;42.664;23.256;2023-09-07T05:57:09;95066.94;;;24.77;51.21
6528;BME280;64597;42.664;23.256;2023-09-07T05:59:34;95068.50;;;24.78;51.42
6528;BME280;64597;42.664;23.256;2023-09-07T06:02:01;95057.03;;;24.73;51.15
6528;BME280;64597;42.664;23.256;2023-09-07T06:04:26;95071.34;;;24.73;51.28
6528;BME280;64597;42.664;23.256;2023-09-07T06:06:52;95073.22;;;24.73;51.20
6528;BME280;64597;42.664;23.256;2023-09-07T06:09:17;95068.75;;;24.68;51.13
6528;BME280;64597;42.664;23.256;2023-09-07T06:11:43;95068.59;;;24.65;51.31
6528;BME280;64597;42.664;23.256;2023-09-07T06:14:09;95065.31;;;24.76;50.64
6528;BME280;64597;42.664;23.256;2023-09-07T06:16:34;95082.72;;;25.01;50.13
6528;BME280;64597;42.664;23.256;2023-09-07T06:19:00;95076.25;;;25.10;49.15
6528;BME280;64597;42.664;23.256;2023-09-07T06:21:26;95066.56;;;25.09;48.95
6528;BME280;64597;42.664;23.256;2023-09-07T06:23:52;95061.53;;;25.25;48.91
6528;BME280;64597;42.664;23.256;2023-09-07T06:26:17;95063.13;;;25.26;48.57
6528;BME280;64597;42.664;23.256;2023-09-07T06:28:44;95058.22;;;25.28;48.51
6528;BME280;64597;42.664;23.256;2023-09-07T06:31:10;95071.31;;;25.52;47.95
6528;BME280;64597;42.664;23.256;2023-09-07T06:33:35;95072.16;;;25.78;48.33
6528;BME280;64597;42.664;23.256;2023-09-07T06:36:01;95010.16;;;25.73;46.75
6528;BME280;64597;42.664;23.256;2023-09-07T06:38:27;95049.75;;;26.29;45.43
6528;BME280;64597;42.664;23.256;2023-09-07T06:40:53;95074.38;;;26.36;44.38
6528;BME280;64597;42.664;23.256;2023-09-07T06:43:18;95051.31;;;26.38;43.46
6528;BME280;64597;42.664;23.256;2023-09-07T06:45:44;95066.06;;;26.58;43.65
6528;BME280;64597;42.664;23.256;2023-09-07T06:48:09;95071.25;;;26.88;42.68
6528;BME280;64597;42.664;23.256;2023-09-07T06:50:35;95077.13;;;26.90;41.45
6528;BME280;64597;42.664;23.256;2023-09-07T06:53:00;95073.50;;;27.24;40.85
6528;BME280;64597;42.664;23.256;2023-09-07T06:55:26;95074.88;;;27.39;40.55
6528;BME280;64597;42.664;23.256;2023-09-07T06:57:53;95072.00;;;27.35;40.05
6528;BME280;64597;42.664;23.256;2023-09-07T07:00:19;95068.72;;;27.21;40.70
6528;BME280;64597;42.664;23.256;2023-09-07T07:02:44;95076.03;;;26.91;40.14
6528;BME280;64597;42.664;23.256;2023-09-07T07:05:10;95070.56;;;26.37;41.07
6528;BME280;64597;42.664;23.256;2023-09-07T07:07:35;95052.09;;;26.47;42.13
6528;BME280;64597;42.664;23.256;2023-09-07T07:10:00;95071.91;;;26.68;41.05
6528;BME280;64597;42.664;23.256;2023-09-07T07:12:26;95077.91;;;27.00;41.36
6528;BME280;64597;42.664;23.256;2023-09-07T07:14:52;95059.75;;;27.00;40.69
6528;BME280;64597;42.664;23.256;2023-09-07T07:17:17;95078.09;;;27.24;39.94
6528;BME280;64597;42.664;23.256;2023-09-07T07:19:43;95080.56;;;27.46;40.21
6528;BME280;64597;42.664;23.256;2023-09-07T07:22:08;95076.38;;;27.57;40.12
6528;BME280;64597;42.664;23.256;2023-09-07T07:24:34;95066.88;;;27.92;38.95
6528;BME280;64597;42.664;23.256;2023-09-07T07:26:59;95090.84;;;28.11;36.79
6528;BME280;64597;42.664;23.256;2023-09-07T07:29:25;95085.03;;;28.00;37.16
6528;BME280;64597;42.664;23.256;2023-09-07T07:31:50;95086.06;;;28.28;36.96
6528;BME280;64597;42.664;23.256;2023-09-07T07:34:16;95081.66;;;28.57;36.68
6528;BME280;64597;42.664;23.256;2023-09-07T07:36:41;95095.69;;;29.03;35.89
6528;BME280;64597;42.664;23.256;2023-09-07T07:39:07;95097.34;;;29.28;35.98
6528;BME280;64597;42.664;23.256;2023-09-07T07:41:33;95112.19;;;29.31;35.83
6528;BME280;64597;42.664;23.256;2023-09-07T07:43:58;95098.84;;;29.05;35.27
6528;BME280;64597;42.664;23.256;2023-09-07T07:46:24;95101.00;;;29.00;35.90
6528;BME280;64597;42.664;23.256;2023-09-07T07:48:49;95111.31;;;29.06;36.47
6528;BME280;64597;42.664;23.256;2023-09-07T07:51:15;95100.56;;;29.10;36.28
6528;BME280;64597;42.664;23.256;2023-09-07T07:53:40;95113.97;;;29.15;36.69
6528;BME280;64597;42.664;23.256;2023-09-07T07:56:06;95097.09;;;29.21;37.62
6528;BME280;64597;42.664;23.256;2023-09-07T07:58:39;95112.84;;;29.52;39.50
6528;BME280;64597;42.664;23.256;2023-09-07T08:01:13;95114.78;;;29.88;39.60
6528;BME280;64597;42.664;23.256;2023-09-07T08:03:39;95106.91;;;30.10;38.35
6528;BME280;64597;42.664;23.256;2023-09-07T08:06:06;95100.09;;;30.17;37.66
6528;BME280;64597;42.664;23.256;2023-09-07T08:08:31;95103.03;;;30.36;37.12
6528;BME280;64597;42.664;23.256;2023-09-07T08:10:57;95097.97;;;30.50;35.98
6528;BME280;64597;42.664;23.256;2023-09-07T08:13:25;95124.50;;;30.53;35.83
6528;BME280;64597;42.664;23.256;2023-09-07T08:15:51;95106.97;;;30.38;34.84
6528;BME280;64597;42.664;23.256;2023-09-07T08:18:16;95104.59;;;30.37;35.04
6528;BME280;64597;42.664;23.256;2023-09-07T08:20:42;95121.13;;;30.44;34.41
6528;BME280;64597;42.664;23.256;2023-09-07T08:23:07;95102.31;;;30.39;34.18
6528;BME280;64597;42.664;23.256;2023-09-07T08:25:35;95106.03;;;30.46;33.80
6528;BME280;64597;42.664;23.256;2023-09-07T08:28:00;95117.03;;;30.50;34.30
6528;BME280;64597;42.664;23.256;2023-09-07T08:30:30;95096.88;;;30.66;34.00
6528;BME280;64597;42.664;23.256;2023-09-07T08:32:56;95101.00;;;30.88;33.44
6528;BME280;64597;42.664;23.256;2023-09-07T08:35:21;95097.72;;;30.82;33.48
6528;BME280;64597;42.664;23.256;2023-09-07T08:37:52;95110.69;;;31.17;32.86
6528;BME280;64597;42.664;23.256;2023-09-07T08:40:18;95104.47;;;31.47;32.50
6528;BME280;64597;42.664;23.256;2023-09-07T08:42:44;95093.97;;;31.65;32.10
6528;BME280;64597;42.664;23.256;2023-09-07T08:45:13;95085.63;;;31.58;31.71
6528;BME280;64597;42.664;23.256;2023-09-07T08:47:41;95102.69;;;31.71;31.23
6528;BME280;64597;42.664;23.256;2023-09-07T08:50:07;95096.28;;;31.47;30.89
6528;BME280;64597;42.664;23.256;2023-09-07T08:52:34;95098.47;;;31.26;30.82
6528;BME280;64597;42.664;23.256;2023-09-07T08:55:01;95097.13;;;30.61;31.08
6528;BME280;64597;42.664;23.256;2023-09-07T08:57:30;95096.03;;;30.10;31.25
6528;BME280;64597;42.664;23.256;2023-09-07T08:59:56;95086.91;;;29.55;32.37
6528;BME280;64597;42.664;23.256;2023-09-07T09:02:22;95094.97;;;29.51;33.02
6528;BME280;64597;42.664;23.256;2023-09-07T09:04:47;95079.22;;;29.20;33.31
6528;BME280;64597;42.664;23.256;2023-09-07T09:07:14;95094.06;;;29.47;34.39
6528;BME280;64597;42.664;23.256;2023-09-07T09:09:39;95083.75;;;29.77;33.70
6528;BME280;64597;42.664;23.256;2023-09-07T09:12:09;95087.81;;;29.83;32.28
6528;BME280;64597;42.664;23.256;2023-09-07T09:14:35;95100.28;;;29.72;32.16
6528;BME280;64597;42.664;23.256;2023-09-07T09:17:00;95094.50;;;29.49;32.36
6528;BME280;64597;42.664;23.256;2023-09-07T09:19:33;95093.59;;;29.33;32.64
6528;BME280;64597;42.664;23.256;2023-09-07T09:21:59;95090.88;;;29.21;32.15
6528;BME280;64597;42.664;23.256;2023-09-07T09:24:24;95083.81;;;28.96;32.50
6528;BME280;64597;42.664;23.256;2023-09-07T09:26:50;95072.41;;;28.58;33.39
6528;BME280;64597;42.664;23.256;2023-09-07T09:29:15;95092.25;;;28.49;33.18
6528;BME280;64597;42.664;23.256;2023-09-07T09:31:41;95089.75;;;28.44;33.15
6528;BME280;64597;42.664;23.256;2023-09-07T09:34:07;95088.81;;;28.40;33.70
6528;BME280;64597;42.664;23.256;2023-09-07T09:36:34;95080.09;;;28.35;33.22
6528;BME280;64597;42.664;23.256;2023-09-07T09:39:00;95090.16;;;28.34;33.54
6528;BME280;64597;42.664;23.256;2023-09-07T09:41:26;95084.63;;;28.10;33.79
6528;BME280;64597;42.664;23.256;2023-09-07T09:43:53;95082.84;;;28.14;33.58
6528;BME280;64597;42.664;23.256;2023-09-07T09:46:19;95073.25;;;27.96;33.73
6528;BME280;64597;42.664;23.256;2023-09-07T09:48:45;95076.19;;;28.24;34.49
6528;BME280;64597;42.664;23.256;2023-09-07T09:51:10;95074.06;;;28.29;33.98
6528;BME280;64597;42.664;23.256;2023-09-07T09:53:36;95079.84;;;28.07;32.94
6528;BME280;64597;42.664;23.256;2023-09-07T09:56:02;95067.63;;;28.01;33.86
6528;BME280;64597;42.664;23.256;2023-09-07T09:58:28;95076.28;;;28.15;34.07
6528;BME280;64597;42.664;23.256;2023-09-07T10:00:56;95075.09;;;28.25;34.38
6528;BME280;64597;42.664;23.256;2023-09-07T10:03:28;95075.44;;;28.03;33.32
6528;BME280;64597;42.664;23.256;2023-09-07T10:05:55;95072.06;;;27.77;34.10
6528;BME280;64597;42.664;23.256;2023-09-07T10:08:21;95074.59;;;27.82;34.08
6528;BME280;64597;42.664;23.256;2023-09-07T10:10:53;95065.03;;;27.84;33.49
6528;BME280;64597;42.664;23.256;2023-09-07T10:13:32;95063.19;;;27.76;32.94
6528;BME280;64597;42.664;23.256;2023-09-07T10:16:06;95069.34;;;27.56;33.70
6528;BME280;64597;42.664;23.256;2023-09-07T10:18:37;95068.13;;;27.74;33.42
6528;BME280;64597;42.664;23.256;2023-09-07T10:21:03;95063.34;;;27.71;33.71
6528;BME280;64597;42.664;23.256;2023-09-07T10:23:39;95063.66;;;27.49;34.38
6528;BME280;64597;42.664;23.256;2023-09-07T10:26:09;95070.09;;;27.36;34.38
6528;BME280;64597;42.664;23.256;2023-09-07T10:28:36;95067.56;;;27.31;34.38
6528;BME280;64597;42.664;23.256;2023-09-07T10:33:29;95061.97;;;27.36;33.97
6528;BME280;64597;42.664;23.256;2023-09-07T10:35:55;95049.25;;;27.36;34.40
6528;BME280;64597;42.664;23.256;2023-09-07T10:38:22;95054.00;;;27.39;34.29
6528;BME280;64597;42.664;23.256;2023-09-07T10:40:48;95054.88;;;27.52;34.70
6528;BME280;64597;42.664;23.256;2023-09-07T10:43:14;95059.44;;;27.60;34.89
6528;BME280;64597;42.664;23.256;2023-09-07T10:45:44;95049.78;;;27.50;34.01
6528;BME280;64597;42.664;23.256;2023-09-07T10:48:10;95045.22;;;27.42;33.99
6528;BME280;64597;42.664;23.256;2023-09-07T10:50:44;95046.88;;;27.35;34.40
6528;BME280;64597;42.664;23.256;2023-09-07T10:53:11;95046.88;;;27.35;35.01
6528;BME280;64597;42.664;23.256;2023-09-07T10:55:38;95046.81;;;27.43;34.78
6528;BME280;64597;42.664;23.256;2023-09-07T10:58:05;95041.72;;;27.42;34.67
6528;BME280;64597;42.664;23.256;2023-09-07T11:00:31;95044.25;;;27.47;35.40
6528;BME280;64597;42.664;23.256;2023-09-07T11:02:56;95039.75;;;27.51;34.70
6528;BME280;64597;42.664;23.256;2023-09-07T11:05:23;95041.53;;;27.47;35.52
6528;BME280;64597;42.664;23.256;2023-09-07T11:07:49;95040.94;;;27.41;35.27
6528;BME280;64597;42.664;23.256;2023-09-07T11:10:14;95044.31;;;27.30;35.11
6528;BME280;64597;42.664;23.256;2023-09-07T11:12:40;95041.00;;;27.24;35.03
6528;BME280;64597;42.664;23.256;2023-09-07T11:15:09;95024.06;;;27.07;35.12
6528;BME280;64597;42.664;23.256;2023-09-07T11:17:38;95029.53;;;26.89;34.80
6528;BME280;64597;42.664;23.256;2023-09-07T11:20:07;95037.22;;;26.79;35.06
6528;BME280;64597;42.664;23.256;2023-09-07T11:22:33;95030.06;;;26.74;35.85
6528;BME280;64597;42.664;23.256;2023-09-07T11:25:01;95033.72;;;26.78;35.98
6528;BME280;64597;42.664;23.256;2023-09-07T11:27:30;94947.16;;;26.24;36.26
6528;BME280;64597;42.664;23.256;2023-09-07T11:29:56;95038.50;;;26.81;36.36
6528;BME280;64597;42.664;23.256;2023-09-07T11:32:23;95033.56;;;26.75;36.14
6528;BME280;64597;42.664;23.256;2023-09-07T11:34:52;95032.78;;;26.74;36.61
6528;BME280;64597;42.664;23.256;2023-09-07T11:37:23;95028.81;;;26.63;36.51
6528;BME280;64597;42.664;23.256;2023-09-07T11:39:49;95020.22;;;26.61;36.84
6528;BME280;64597;42.664;23.256;2023-09-07T11:42:14;95019.44;;;26.52;37.01
6528;BME280;64597;42.664;23.256;2023-09-07T11:44:40;95025.69;;;26.44;36.66
6528;BME280;64597;42.664;23.256;2023-09-07T11:47:05;95026.50;;;26.36;36.78
6528;BME280;64597;42.664;23.256;2023-09-07T11:49:32;95026.19;;;26.29;36.92
6528;BME280;64597;42.664;23.256;2023-09-07T11:51:58;95026.53;;;26.19;37.51
6528;BME280;64597;42.664;23.256;2023-09-07T11:54:24;94948.03;;;25.56;37.61
6528;BME280;64597;42.664;23.256;2023-09-07T11:56:49;95021.59;;;26.04;37.96
6528;BME280;64597;42.664;23.256;2023-09-07T11:59:15;95025.09;;;25.87;38.05
6528;BME280;64597;42.664;23.256;2023-09-07T12:01:43;95025.44;;;25.86;38.17
6528;BME280;64597;42.664;23.256;2023-09-07T12:04:09;95018.75;;;25.83;38.53
6528;BME280;64597;42.664;23.256;2023-09-07T12:06:35;95031.63;;;25.78;38.91
6528;BME280;64597;42.664;23.256;2023-09-07T12:09:02;95026.22;;;25.78;38.40
6528;BME280;64597;42.664;23.256;2023-09-07T12:11:28;95023.53;;;25.78;38.59
6528;BME280;64597;42.664;23.256;2023-09-07T12:13:54;95018.88;;;25.70;38.75
6528;BME280;64597;42.664;23.256;2023-09-07T12:16:20;95024.28;;;25.70;38.54
6528;BME280;64597;42.664;23.256;2023-09-07T12:18:45;95016.97;;;25.62;38.75
6528;BME280;64597;42.664;23.256;2023-09-07T12:21:10;95008.88;;;25.45;38.47
6528;BME280;64597;42.664;23.256;2023-09-07T12:23:36;95017.94;;;25.49;38.57
6528;BME280;64597;42.664;23.256;2023-09-07T12:26:01;95022.69;;;25.52;38.52
6528;BME280;64597;42.664;23.256;2023-09-07T12:28:29;95019.84;;;25.57;39.01
6528;BME280;64597;42.664;23.256;2023-09-07T12:30:55;95018.59;;;25.63;38.94
6528;BME280;64597;42.664;23.256;2023-09-07T12:33:20;95006.69;;;25.55;38.87
6528;BME280;64597;42.664;23.256;2023-09-07T12:35:46;95019.53;;;25.50;38.49
6528;BME280;64597;42.664;23.256;2023-09-07T12:38:11;95011.75;;;25.48;38.64
6528;BME280;64597;42.664;23.256;2023-09-07T12:40:42;95010.63;;;25.41;38.42
6528;BME280;64597;42.664;23.256;2023-09-07T12:43:08;95009.47;;;25.33;38.35
6528;BME280;64597;42.664;23.256;2023-09-07T12:45:33;95009.59;;;25.19;38.73
6528;BME280;64597;42.664;23.256;2023-09-07T12:47:58;95018.66;;;25.23;38.75
6528;BME280;64597;42.664;23.256;2023-09-07T12:50:26;95017.41;;;25.29;38.83
6528;BME280;64597;42.664;23.256;2023-09-07T12:52:52;95023.59;;;25.30;38.57
6528;BME280;64597;42.664;23.256;2023-09-07T12:55:17;95024.72;;;25.38;38.92
6528;BME280;64597;42.664;23.256;2023-09-07T12:57:44;95024.25;;;25.35;38.77
6528;BME280;64597;42.664;23.256;2023-09-07T13:00:09;94991.16;;;25.04;38.42